Главная страница
METAR-TAF:

METAR-TAF

Аэропорты :

Sussex Airport

Sussex, Нью-Джерси, США

широта: 41-12-01N, долгота: 074-37-23W, высота над уровнем моря: 128 м

Текущие метеонаблюдения

Эта сводка был подготовлена 36 минут назад, в 15:53 UTC
Ветер 4 Узел переменных направлений
Температура 1°C
Влажность 64%
Давление 1017 hPa
Видимость: 16.1 км
Сплошная облачность на высоте 3300 фута

METAR: KFWN 161553Z AUTO VRB04KT 10SM OVC033 01/M05 A3004 RMK AO2 SLP177 T00111050

Время: 11:29 (16:29 UTC)


TAF: отсутствует

Метеонаблюдения и прогнозы для более 4000 аэропортов (сводки METAR и TAF).

Имеющиеся станции представлены на карте желтыми и красными точками.

Чтобы увидеть название станции, наведите на нее мышь.

Затем щелкните, чтобы увидеть метеонаблюдения и метеопрогнозы.

Управление картой: чтобы увеличить масштаб, щелкните зеленые кнопки с черным крестиком; чтобы уменьшить масштаб, щелкните зеленую кнопку с тире; для просмотра соседних карт щелкайте зеленые стрелки.


METAR-TAF: